createdAt,value
2019-01-15T00:00:50.240Z,2.70
2019-01-15T00:03:38.066Z,2.70
2019-01-15T00:06:25.917Z,2.80
2019-01-15T00:09:13.644Z,2.80
2019-01-15T00:12:07.754Z,2.80
2019-01-15T00:14:51.076Z,2.80
2019-01-15T00:17:38.693Z,2.80
2019-01-15T00:20:26.387Z,2.90
2019-01-15T00:23:14.312Z,2.90
2019-01-15T00:26:01.885Z,2.90
2019-01-15T00:28:49.781Z,2.90
2019-01-15T00:31:37.521Z,2.90
2019-01-15T00:34:25.266Z,2.90
2019-01-15T00:37:13.117Z,2.90
2019-01-15T00:40:00.945Z,2.90
2019-01-15T00:42:49.013Z,2.90
2019-01-15T00:45:36.801Z,2.90
2019-01-15T00:48:24.616Z,2.90
2019-01-15T00:51:12.580Z,2.90
2019-01-15T00:54:00.311Z,2.90
2019-01-15T00:56:48.033Z,2.90
2019-01-15T00:59:35.864Z,2.90
2019-01-15T01:02:23.564Z,2.90
2019-01-15T01:05:11.937Z,3.00
2019-01-15T01:07:59.603Z,3.00
2019-01-15T01:10:47.353Z,3.00
2019-01-15T01:13:35.517Z,3.00
2019-01-15T01:16:23.344Z,3.00
2019-01-15T01:19:11.072Z,3.00
2019-01-15T01:21:59.599Z,3.00
2019-01-15T01:24:47.552Z,3.00
2019-01-15T01:27:35.760Z,2.90
2019-01-15T01:30:24.124Z,2.90
2019-01-15T01:33:11.993Z,2.90
2019-01-15T01:35:59.588Z,2.80
2019-01-15T01:38:47.832Z,2.60
2019-01-15T01:41:35.516Z,2.60
2019-01-15T01:44:23.240Z,2.50
2019-01-15T01:47:10.924Z,2.60
2019-01-15T01:49:58.920Z,2.60
2019-01-15T01:52:46.724Z,2.60
2019-01-15T01:55:37.348Z,2.60
2019-01-15T01:58:25.238Z,2.60
2019-01-15T02:01:13.165Z,2.60
2019-01-15T02:04:01.270Z,2.70
2019-01-15T02:06:49.144Z,2.60
2019-01-15T02:09:37.057Z,2.60
2019-01-15T02:12:24.912Z,2.60
2019-01-15T02:15:15.807Z,2.60
2019-01-15T02:18:03.540Z,2.50
2019-01-15T02:20:51.302Z,2.40
2019-01-15T02:23:39.253Z,2.30
2019-01-15T02:26:27.256Z,2.30
2019-01-15T02:29:15.065Z,2.20
2019-01-15T02:32:02.889Z,2.10
2019-01-15T02:34:50.820Z,2.10
2019-01-15T02:37:38.895Z,2.10
2019-01-15T02:40:26.743Z,2.00
2019-01-15T02:43:14.316Z,2.00
2019-01-15T02:46:02.198Z,1.90
2019-01-15T02:48:50.076Z,1.90
2019-01-15T02:51:37.941Z,2.00
2019-01-15T02:54:25.852Z,2.10
2019-01-15T02:57:13.858Z,2.10
2019-01-15T03:00:01.938Z,2.10
2019-01-15T03:02:49.836Z,2.10
2019-01-15T03:05:37.532Z,2.10
2019-01-15T03:08:25.541Z,2.10
2019-01-15T03:11:13.388Z,2.10
2019-01-15T03:14:01.193Z,2.00
2019-01-15T03:16:49.148Z,2.00
2019-01-15T03:19:37.079Z,1.90
2019-01-15T03:22:25.128Z,2.00
2019-01-15T03:25:13.239Z,2.00
2019-01-15T03:28:01.037Z,2.00
2019-01-15T03:30:48.685Z,2.00
2019-01-15T03:33:36.653Z,2.10
2019-01-15T03:36:24.479Z,2.10
2019-01-15T03:39:12.492Z,2.00
2019-01-15T03:42:00.320Z,2.00
2019-01-15T03:44:48.073Z,1.90
2019-01-15T03:47:35.845Z,1.90
2019-01-15T03:50:23.649Z,2.00
2019-01-15T03:53:11.400Z,2.00
2019-01-15T03:55:59.649Z,2.10
2019-01-15T03:58:47.427Z,2.10
2019-01-15T04:01:35.224Z,2.10
2019-01-15T04:04:23.206Z,1.90
2019-01-15T04:07:10.936Z,1.90
2019-01-15T04:09:58.889Z,1.90
2019-01-15T04:12:46.864Z,1.90
2019-01-15T04:15:34.793Z,1.90
2019-01-15T04:18:22.553Z,2.00
2019-01-15T04:21:10.797Z,2.10
2019-01-15T04:23:58.292Z,2.20
2019-01-15T04:26:45.948Z,2.40
2019-01-15T04:29:33.856Z,2.40
2019-01-15T04:32:21.452Z,2.50
2019-01-15T04:35:09.928Z,2.50
2019-01-15T04:37:57.760Z,2.50
2019-01-15T04:40:45.373Z,2.60
2019-01-15T04:43:33.316Z,2.60
2019-01-15T04:46:20.948Z,2.60
2019-01-15T04:49:08.944Z,2.60
2019-01-15T04:51:56.821Z,2.60
2019-01-15T04:54:44.708Z,2.60
2019-01-15T04:57:32.424Z,2.60
2019-01-15T05:00:21.468Z,2.50
2019-01-15T05:03:09.429Z,2.50
2019-01-15T05:05:56.990Z,2.50
2019-01-15T05:08:44.728Z,2.50
2019-01-15T05:11:32.793Z,2.60
2019-01-15T05:14:20.405Z,2.50
2019-01-15T05:17:08.372Z,2.50
2019-01-15T05:19:56.409Z,2.60
2019-01-15T05:22:44.491Z,2.60
2019-01-15T05:25:32.352Z,2.60
2019-01-15T05:28:20.125Z,2.60
2019-01-15T05:31:07.909Z,2.60
2019-01-15T05:33:55.984Z,2.60
2019-01-15T05:36:43.913Z,2.60
2019-01-15T05:39:31.820Z,2.60
2019-01-15T05:42:19.769Z,2.70
2019-01-15T05:45:12.640Z,2.70
2019-01-15T05:48:02.361Z,2.70
2019-01-15T05:50:55.011Z,2.70
2019-01-15T05:53:42.820Z,2.70
2019-01-15T05:56:30.708Z,2.80
2019-01-15T05:59:18.704Z,2.80
2019-01-15T06:02:06.677Z,2.80
2019-01-15T06:04:54.761Z,2.80
2019-01-15T06:07:42.364Z,2.90
2019-01-15T06:10:30.076Z,2.90
2019-01-15T06:13:17.938Z,2.90
2019-01-15T06:16:05.984Z,2.90
2019-01-15T06:18:53.756Z,2.90
2019-01-15T06:21:41.700Z,2.90
2019-01-15T06:24:29.614Z,3.10
2019-01-15T06:27:17.685Z,3.10
2019-01-15T06:30:11.223Z,3.20
2019-01-15T06:32:59.217Z,3.30
2019-01-15T06:35:47.511Z,3.30
2019-01-15T06:38:35.310Z,3.30
2019-01-15T06:41:23.229Z,3.30
2019-01-15T06:44:10.961Z,3.20
2019-01-15T06:46:58.820Z,3.20
2019-01-15T06:49:46.421Z,3.20
2019-01-15T06:52:34.253Z,3.00
2019-01-15T06:55:23.579Z,3.10
2019-01-15T06:58:11.386Z,3.10
2019-01-15T07:00:59.286Z,3.10
2019-01-15T07:03:46.944Z,3.00
2019-01-15T07:06:34.898Z,3.00
2019-01-15T07:09:22.776Z,3.10
2019-01-15T07:12:10.396Z,3.10
2019-01-15T07:14:58.565Z,3.10
2019-01-15T07:17:46.420Z,3.20
2019-01-15T07:20:34.272Z,3.20
2019-01-15T07:23:21.824Z,3.00
2019-01-15T07:26:09.957Z,2.90
2019-01-15T07:28:57.805Z,2.80
2019-01-15T07:31:45.676Z,2.90
2019-01-15T07:34:33.497Z,3.00
2019-01-15T07:37:21.602Z,3.00
2019-01-15T07:40:12.244Z,3.10
2019-01-15T07:42:59.996Z,3.10
2019-01-15T07:45:47.980Z,3.10
2019-01-15T07:48:35.792Z,3.00
2019-01-15T07:51:24.976Z,3.00
2019-01-15T07:54:12.565Z,3.10
2019-01-15T07:57:00.395Z,3.10
2019-01-15T07:59:47.992Z,3.20
2019-01-15T08:02:35.848Z,3.40
2019-01-15T08:05:25.546Z,3.50
2019-01-15T08:08:13.519Z,3.60
2019-01-15T08:11:01.576Z,3.60
2019-01-15T08:13:49.436Z,3.70
2019-01-15T08:16:37.313Z,3.60
2019-01-15T08:19:24.970Z,3.70
2019-01-15T08:22:12.969Z,3.60
2019-01-15T08:25:00.987Z,3.70
2019-01-15T08:27:48.725Z,3.70
2019-01-15T08:30:37.362Z,3.90
2019-01-15T08:33:25.040Z,4.00
2019-01-15T08:36:13.203Z,4.20
2019-01-15T08:39:00.832Z,4.30
2019-01-15T08:41:48.751Z,4.30
2019-01-15T08:44:36.884Z,4.20
2019-01-15T08:47:24.998Z,4.10
2019-01-15T08:50:15.912Z,4.10
2019-01-15T08:53:03.440Z,4.00
2019-01-15T08:55:53.128Z,4.10
2019-01-15T08:58:40.949Z,4.30
2019-01-15T09:01:28.974Z,4.50
2019-01-15T09:04:16.552Z,5.00
2019-01-15T09:07:04.136Z,5.10
2019-01-15T09:09:51.841Z,5.30
2019-01-15T09:12:39.736Z,5.50
2019-01-15T09:15:27.628Z,5.60
2019-01-15T09:18:15.700Z,5.60
2019-01-15T09:21:03.340Z,5.60
2019-01-15T09:23:51.491Z,5.70
2019-01-15T09:26:39.217Z,5.70
2019-01-15T09:29:27.210Z,5.70
2019-01-15T09:32:15.218Z,5.70
2019-01-15T09:35:03.748Z,5.70
2019-01-15T09:37:51.405Z,5.70
2019-01-15T09:40:39.504Z,5.70
2019-01-15T09:43:27.465Z,5.70
2019-01-15T09:46:15.543Z,5.80
2019-01-15T09:49:03.472Z,5.80
2019-01-15T09:51:51.205Z,5.70
2019-01-15T09:54:39.120Z,5.70
2019-01-15T09:57:27.129Z,5.80
2019-01-15T10:00:19.292Z,5.80
2019-01-15T10:03:07.063Z,5.80
2019-01-15T10:05:55.794Z,5.80
2019-01-15T10:08:44.032Z,5.80
2019-01-15T10:11:32.000Z,5.80
2019-01-15T10:14:19.936Z,6.00
2019-01-15T10:17:07.780Z,6.00
2019-01-15T10:19:55.765Z,6.10
2019-01-15T10:22:44.034Z,6.30
2019-01-15T10:25:31.941Z,6.30
2019-01-15T10:28:19.802Z,6.40
2019-01-15T10:31:16.968Z,6.50
2019-01-15T10:34:07.503Z,6.50
2019-01-15T10:36:53.972Z,6.50
2019-01-15T10:39:41.647Z,6.50
2019-01-15T10:42:29.680Z,6.40
2019-01-15T10:45:17.629Z,6.50
2019-01-15T10:48:05.639Z,6.50
2019-01-15T10:50:53.364Z,6.40
2019-01-15T10:53:41.169Z,6.50
2019-01-15T10:56:29.068Z,6.50
2019-01-15T10:59:16.948Z,6.40
2019-01-15T11:02:05.128Z,6.30
2019-01-15T11:04:52.845Z,6.30
2019-01-15T11:07:40.399Z,6.30
2019-01-15T11:10:28.124Z,6.30
2019-01-15T11:13:16.000Z,6.50
2019-01-15T11:16:04.153Z,6.50
2019-01-15T11:18:51.709Z,6.60
2019-01-15T11:21:39.540Z,6.60
2019-01-15T11:24:27.569Z,6.40
2019-01-15T11:27:15.292Z,6.40
2019-01-15T11:30:04.558Z,6.40
2019-01-15T11:32:52.592Z,6.40
2019-01-15T11:35:40.224Z,6.40
2019-01-15T11:38:27.873Z,6.50
2019-01-15T11:41:15.822Z,6.60
2019-01-15T11:44:03.996Z,6.50
2019-01-15T11:46:51.912Z,6.60
2019-01-15T11:49:40.037Z,6.70
2019-01-15T11:52:27.745Z,6.80
2019-01-15T11:55:15.641Z,6.90
2019-01-15T11:58:03.656Z,7.00
2019-01-15T12:00:59.240Z,7.10
2019-01-15T12:04:04.572Z,7.00
2019-01-15T12:07:10.902Z,7.10
2019-01-15T12:10:00.564Z,7.10
2019-01-15T12:12:55.533Z,7.20
2019-01-15T12:15:48.070Z,7.30
2019-01-15T12:18:55.893Z,7.30
2019-01-15T12:21:45.445Z,7.20
2019-01-15T12:24:51.309Z,7.10
2019-01-15T12:27:43.785Z,7.00
2019-01-15T12:30:36.417Z,7.00
2019-01-15T12:33:41.772Z,6.80
2019-01-15T12:36:34.005Z,6.80
2019-01-15T12:39:42.005Z,6.70
2019-01-15T12:42:47.226Z,6.80
2019-01-15T12:45:48.457Z,6.90
2019-01-15T12:48:50.525Z,7.10
2019-01-15T12:51:57.010Z,7.10
2019-01-15T12:55:05.064Z,7.20
2019-01-15T12:58:00.309Z,7.10
2019-01-15T13:01:08.180Z,7.10
2019-01-15T13:04:12.749Z,7.10
2019-01-15T13:07:02.473Z,7.10
2019-01-15T13:09:52.179Z,7.00
2019-01-15T13:12:44.509Z,7.00
2019-01-15T13:15:42.601Z,7.00
2019-01-15T13:18:38.276Z,6.90
2019-01-15T13:21:27.577Z,6.80
2019-01-15T13:24:33.558Z,6.80
2019-01-15T13:27:38.508Z,6.80
2019-01-15T13:30:43.757Z,6.90
2019-01-15T13:33:36.772Z,6.90
2019-01-15T13:36:33.381Z,6.90
2019-01-15T13:39:22.776Z,7.00
2019-01-15T13:42:12.593Z,7.00
2019-01-15T13:45:05.267Z,7.00
2019-01-15T13:48:00.600Z,7.00
2019-01-15T13:51:02.375Z,7.20
2019-01-15T13:53:51.653Z,7.20
2019-01-15T13:56:57.262Z,7.10
2019-01-15T13:59:46.871Z,7.00
2019-01-15T14:02:52.990Z,7.00
2019-01-15T14:05:48.043Z,7.00
2019-01-15T14:08:56.065Z,7.00
2019-01-15T14:11:45.572Z,7.00
2019-01-15T14:14:52.304Z,6.90
2019-01-15T14:17:47.817Z,6.80
2019-01-15T14:20:54.108Z,6.80
2019-01-15T14:23:46.516Z,6.60
2019-01-15T14:26:45.692Z,6.50
2019-01-15T14:29:35.184Z,6.40
2019-01-15T14:32:24.400Z,6.40
2019-01-15T14:35:30.092Z,6.40
2019-01-15T14:38:28.546Z,6.30
2019-01-15T14:41:35.945Z,6.30
2019-01-15T14:44:31.637Z,6.30
2019-01-15T14:47:37.560Z,6.30
2019-01-15T14:50:33.226Z,6.30
2019-01-15T14:53:39.206Z,6.30
2019-01-15T14:56:31.792Z,6.30
2019-01-15T14:59:35.397Z,6.30
2019-01-15T15:02:31.104Z,6.40
2019-01-15T15:05:21.040Z,6.40
2019-01-15T15:08:13.387Z,6.40
2019-01-15T15:11:05.622Z,6.40
2019-01-15T15:13:55.117Z,6.30
2019-01-15T15:17:00.052Z,6.20
2019-01-15T15:19:49.752Z,6.20
2019-01-15T15:22:44.984Z,6.20
2019-01-15T15:25:40.692Z,6.10
2019-01-15T15:28:39.444Z,6.10
2019-01-15T15:31:34.598Z,6.10
2019-01-15T15:34:33.456Z,6.10
2019-01-15T15:37:29.766Z,6.10
2019-01-15T15:40:19.484Z,6.10
2019-01-15T15:43:12.034Z,6.10
2019-01-15T15:46:10.994Z,6.10
2019-01-15T15:48:56.074Z,6.10
2019-01-15T15:51:57.814Z,6.10
2019-01-15T15:54:56.853Z,6.10
2019-01-15T15:57:48.948Z,6.10
2019-01-15T16:00:54.657Z,6.10
2019-01-15T16:03:53.129Z,6.10
2019-01-15T16:07:01.097Z,6.10
2019-01-15T16:10:07.022Z,6.10
2019-01-15T16:12:58.982Z,6.10
2019-01-15T16:15:51.093Z,6.10
2019-01-15T16:18:49.492Z,6.10
2019-01-15T16:21:38.948Z,6.00
2019-01-15T16:24:36.872Z,6.00
2019-01-15T16:27:26.179Z,6.00
2019-01-15T16:30:30.517Z,6.00
2019-01-15T16:33:36.494Z,6.00
2019-01-15T16:36:42.617Z,6.00
2019-01-15T16:39:49.961Z,6.00
2019-01-15T16:42:52.003Z,6.00
2019-01-15T16:45:50.863Z,6.00
2019-01-15T16:48:49.516Z,6.00
2019-01-15T16:51:50.900Z,5.90
2019-01-15T16:54:56.473Z,5.90
2019-01-15T16:57:51.901Z,5.90
2019-01-15T17:00:47.200Z,5.90
2019-01-15T17:03:36.561Z,5.90
2019-01-15T17:06:34.848Z,5.90
2019-01-15T17:09:42.289Z,5.90
2019-01-15T17:12:43.221Z,5.90
2019-01-15T17:15:50.868Z,5.90
2019-01-15T17:18:57.649Z,5.90
2019-01-15T17:21:47.226Z,5.90
2019-01-15T17:24:36.973Z,5.90
2019-01-15T17:27:43.216Z,5.90
2019-01-15T17:30:51.129Z,5.90
2019-01-15T17:33:49.644Z,5.90
2019-01-15T17:36:39.359Z,5.90
2019-01-15T17:39:29.140Z,5.90
2019-01-15T17:42:34.058Z,5.90
2019-01-15T17:45:23.393Z,5.90
2019-01-15T17:48:15.180Z,5.90
2019-01-15T17:51:07.849Z,6.00
2019-01-15T17:53:57.389Z,6.00
2019-01-15T17:56:52.760Z,5.90
2019-01-15T17:59:47.965Z,5.90
2019-01-15T18:02:40.740Z,5.90
2019-01-15T18:05:46.138Z,6.00
2019-01-15T18:08:36.132Z,5.90
2019-01-15T18:11:37.793Z,5.90
2019-01-15T18:14:42.624Z,6.00
2019-01-15T18:17:32.236Z,6.00
2019-01-15T18:20:22.223Z,5.90
2019-01-15T18:23:12.225Z,5.90
2019-01-15T18:26:07.752Z,5.90
2019-01-15T18:29:09.249Z,6.00
2019-01-15T18:32:04.081Z,6.00
2019-01-15T18:35:10.565Z,6.00
2019-01-15T18:40:55.848Z,6.00
2019-01-15T18:43:57.670Z,6.00
2019-01-15T18:46:56.368Z,6.00
2019-01-15T18:49:45.828Z,6.00
2019-01-15T18:52:41.024Z,6.00
2019-01-15T18:55:39.455Z,6.00
2019-01-15T18:58:29.135Z,6.00
2019-01-15T19:01:21.945Z,6.00
2019-01-15T19:04:17.326Z,6.00
2019-01-15T19:07:21.668Z,6.00
2019-01-15T19:10:28.053Z,6.00
2019-01-15T19:13:37.344Z,5.90
2019-01-15T19:16:34.886Z,6.00
2019-01-15T19:19:27.275Z,6.00
2019-01-15T19:22:26.524Z,6.00
2019-01-15T19:25:16.242Z,6.00
2019-01-15T19:28:23.706Z,6.00
2019-01-15T19:31:25.493Z,6.10
2019-01-15T19:34:23.980Z,6.00
2019-01-15T19:37:30.276Z,6.00
2019-01-15T19:40:35.390Z,6.00
2019-01-15T19:43:37.158Z,6.00
2019-01-15T19:46:43.369Z,6.00
2019-01-15T19:49:32.869Z,6.00
2019-01-15T19:52:22.279Z,6.00
2019-01-15T19:55:28.929Z,6.00
2019-01-15T19:58:21.198Z,6.10
2019-01-15T20:01:28.929Z,6.10
2019-01-15T20:04:27.580Z,6.00
2019-01-15T20:07:16.822Z,6.00
2019-01-15T20:10:15.060Z,6.10
2019-01-15T20:13:13.808Z,6.10
2019-01-15T20:16:12.370Z,6.10
2019-01-15T20:19:13.993Z,6.10
2019-01-15T20:22:19.677Z,6.10
2019-01-15T20:25:12.441Z,6.10
2019-01-15T20:28:18.741Z,6.10
2019-01-15T20:31:11.140Z,6.10
2019-01-15T20:34:07.126Z,6.10
2019-01-15T20:36:56.393Z,6.10
2019-01-15T20:39:51.817Z,6.10
2019-01-15T20:42:50.585Z,6.10
2019-01-15T20:45:40.546Z,6.10
2019-01-15T20:48:33.278Z,6.10
2019-01-15T20:51:23.074Z,6.20
2019-01-15T20:54:24.630Z,6.20
2019-01-15T20:57:13.858Z,6.20
2019-01-15T21:00:09.803Z,6.10
2019-01-15T21:03:15.463Z,6.10
2019-01-15T21:06:13.681Z,6.20
2019-01-15T21:09:08.692Z,6.10
2019-01-15T21:12:14.573Z,6.10
2019-01-15T21:15:04.089Z,6.10
2019-01-15T21:17:54.164Z,6.10
2019-01-15T21:20:49.236Z,6.10
2019-01-15T21:23:55.540Z,6.20
2019-01-15T21:26:50.897Z,6.10
2019-01-15T21:29:50.122Z,6.10
2019-01-15T21:32:45.377Z,6.10
2019-01-15T21:35:34.616Z,6.10
2019-01-15T21:38:26.834Z,6.10
2019-01-15T21:41:19.437Z,6.10
2019-01-15T21:44:17.975Z,6.10
2019-01-15T21:47:10.380Z,6.10
2019-01-15T21:50:17.107Z,6.10
2019-01-15T21:53:09.614Z,6.10
2019-01-15T21:56:01.918Z,6.10
2019-01-15T21:58:51.516Z,6.10
2019-01-15T22:01:47.633Z,6.10
2019-01-15T22:04:43.035Z,6.10
2019-01-15T22:07:37.966Z,6.10
2019-01-15T22:10:33.168Z,6.10
2019-01-15T22:13:39.300Z,6.10
2019-01-15T22:16:45.498Z,6.10
2019-01-15T22:19:44.134Z,6.10
2019-01-15T22:22:33.804Z,6.10
2019-01-15T22:25:29.742Z,6.10
2019-01-15T22:28:34.798Z,6.10
2019-01-15T22:31:33.422Z,6.10
2019-01-15T22:34:41.320Z,6.10
2019-01-15T22:37:30.841Z,6.10
2019-01-15T22:40:38.553Z,6.10
2019-01-15T22:43:31.329Z,6.10
2019-01-15T22:46:21.345Z,6.10
2019-01-15T22:49:13.682Z,6.10
2019-01-15T22:52:29.111Z,6.10
2019-01-15T22:55:18.888Z,6.10
2019-01-15T22:58:17.404Z,6.10
2019-01-15T23:01:25.181Z,6.10
2019-01-15T23:04:21.576Z,6.10
2019-01-15T23:07:22.480Z,6.10
2019-01-15T23:10:28.929Z,6.00
2019-01-15T23:13:21.404Z,6.00
2019-01-15T23:16:11.153Z,6.00
2019-01-15T23:19:00.976Z,6.00
2019-01-15T23:21:50.376Z,6.10
2019-01-15T23:24:45.644Z,6.10
2019-01-15T23:27:35.410Z,6.00
2019-01-15T23:30:24.956Z,6.00
2019-01-15T23:33:30.294Z,6.00
2019-01-15T23:36:36.071Z,6.00
2019-01-15T23:39:42.196Z,5.90
2019-01-15T23:42:34.823Z,6.00
2019-01-15T23:45:24.248Z,6.00
2019-01-15T23:48:30.733Z,6.00
2019-01-15T23:51:20.432Z,6.00
2019-01-15T23:54:19.196Z,6.00
2019-01-15T23:57:23.832Z,6.00
